createdAt,value
2019-05-22T00:02:36.056Z,2.87
2019-05-22T00:05:14.455Z,3.10
2019-05-22T00:07:48.902Z,1.80
2019-05-22T00:10:22.083Z,3.40
2019-05-22T00:12:52.842Z,1.70
2019-05-22T00:15:23.318Z,3.17
2019-05-22T00:17:54.240Z,2.97
2019-05-22T00:20:25.831Z,2.50
2019-05-22T00:22:55.010Z,3.37
2019-05-22T00:25:28.768Z,4.93
2019-05-22T00:27:59.716Z,3.63
2019-05-22T00:30:31.051Z,5.17
2019-05-22T00:33:00.565Z,3.80
2019-05-22T00:35:31.465Z,3.50
2019-05-22T00:38:01.452Z,4.47
2019-05-22T00:40:32.050Z,3.67
2019-05-22T00:43:06.741Z,3.97
2019-05-22T00:45:31.323Z,4.30
2019-05-22T00:48:00.466Z,4.80
2019-05-22T00:50:33.214Z,3.10
2019-05-22T00:53:07.992Z,2.13
2019-05-22T00:55:48.417Z,2.10
2019-05-22T00:58:19.695Z,2.37
2019-05-22T01:00:50.238Z,3.00
2019-05-22T01:03:22.460Z,1.70
2019-05-22T01:05:51.394Z,1.33
2019-05-22T01:08:21.516Z,1.53
2019-05-22T01:10:54.705Z,1.73
2019-05-22T01:13:25.419Z,1.20
2019-05-22T01:15:55.270Z,1.80
2019-05-22T01:18:25.543Z,1.67
2019-05-22T01:20:57.766Z,1.70
2019-05-22T01:23:29.323Z,1.10
2019-05-22T01:26:00.036Z,1.23
2019-05-22T01:28:30.339Z,1.43
2019-05-22T01:31:06.883Z,1.83
2019-05-22T01:33:40.728Z,1.40
2019-05-22T01:36:11.194Z,2.00
2019-05-22T01:38:40.427Z,2.77
2019-05-22T01:41:18.841Z,2.27
2019-05-22T01:43:50.280Z,2.50
2019-05-22T01:46:21.141Z,3.07
2019-05-22T01:48:53.821Z,3.90
2019-05-22T01:51:22.645Z,4.27
2019-05-22T01:53:51.957Z,5.07
2019-05-22T01:56:21.148Z,3.90
2019-05-22T01:58:50.702Z,4.03
2019-05-22T02:01:21.474Z,4.73
2019-05-22T02:03:51.793Z,6.40
2019-05-22T02:06:23.258Z,5.43
2019-05-22T02:08:56.621Z,4.80
2019-05-22T02:11:27.375Z,5.83
2019-05-22T02:14:12.453Z,4.10
2019-05-22T02:16:55.942Z,3.33
2019-05-22T02:19:16.526Z,4.27
2019-05-22T02:21:45.871Z,4.07
2019-05-22T02:24:16.139Z,3.40
2019-05-22T02:26:46.031Z,3.60
2019-05-22T02:29:16.814Z,4.40
2019-05-22T02:31:47.098Z,5.43
2019-05-22T02:34:16.896Z,5.63
2019-05-22T02:36:46.299Z,5.63
2019-05-22T02:39:18.213Z,6.17
2019-05-22T02:41:53.032Z,5.50
2019-05-22T02:44:23.075Z,6.70
2019-05-22T02:46:53.232Z,4.53
2019-05-22T02:49:23.976Z,6.23
2019-05-22T02:51:54.029Z,4.03
2019-05-22T02:54:22.796Z,5.30
2019-05-22T02:56:51.429Z,2.97
2019-05-22T02:59:21.009Z,4.57
2019-05-22T03:01:49.758Z,4.17
2019-05-22T03:04:20.167Z,4.23
2019-05-22T03:06:51.133Z,5.37
2019-05-22T03:09:22.205Z,4.50
2019-05-22T03:11:57.676Z,4.93
2019-05-22T03:14:28.568Z,5.37
2019-05-22T03:17:00.595Z,5.93
2019-05-22T03:19:36.612Z,7.50
2019-05-22T03:22:21.355Z,6.53
2019-05-22T03:24:51.924Z,9.33
2019-05-22T03:27:24.126Z,8.53
2019-05-22T03:29:53.855Z,7.67
2019-05-22T03:32:23.572Z,8.23
2019-05-22T03:34:53.255Z,7.40
2019-05-22T03:37:23.706Z,6.40
2019-05-22T03:39:52.473Z,5.63
2019-05-22T03:42:22.840Z,5.37
2019-05-22T03:44:53.674Z,5.97
2019-05-22T03:47:25.440Z,5.63
2019-05-22T03:49:55.196Z,5.30
2019-05-22T03:52:25.417Z,7.00
2019-05-22T03:54:55.885Z,7.00
2019-05-22T03:57:24.579Z,7.13
2019-05-22T03:59:54.691Z,6.33
2019-05-22T04:02:23.864Z,9.83
2019-05-22T04:04:54.800Z,9.80
2019-05-22T04:07:24.103Z,7.63
2019-05-22T04:09:53.326Z,7.97
2019-05-22T04:12:22.500Z,9.27
2019-05-22T04:14:51.515Z,9.37
2019-05-22T04:17:21.265Z,8.80
2019-05-22T04:19:51.868Z,8.50
2019-05-22T04:22:21.608Z,9.07
2019-05-22T04:24:51.374Z,7.70
2019-05-22T04:27:20.370Z,7.73
2019-05-22T04:29:49.936Z,6.37
2019-05-22T04:32:21.683Z,6.67
2019-05-22T04:34:51.775Z,5.80
2019-05-22T04:37:21.746Z,7.63
2019-05-22T04:39:53.981Z,5.50
2019-05-22T04:42:23.619Z,7.17
2019-05-22T04:45:10.965Z,6.30
2019-05-22T04:47:40.341Z,5.93
2019-05-22T04:50:10.549Z,5.67
2019-05-22T04:52:39.308Z,7.20
2019-05-22T04:55:11.405Z,9.50
2019-05-22T04:57:41.076Z,8.53
2019-05-22T05:00:11.533Z,6.53
2019-05-22T05:02:41.150Z,5.70
2019-05-22T05:05:11.126Z,4.00
2019-05-22T05:07:41.649Z,6.27
2019-05-22T05:10:11.088Z,7.33
2019-05-22T05:12:41.403Z,4.03
2019-05-22T05:15:10.194Z,3.07
2019-05-22T05:17:39.065Z,4.83
2019-05-22T05:20:21.588Z,3.93
2019-05-22T05:22:44.476Z,5.23
2019-05-22T05:25:14.968Z,3.97
2019-05-22T05:27:45.445Z,6.00
2019-05-22T05:30:15.536Z,3.63
2019-05-22T05:32:46.455Z,5.03
2019-05-22T05:35:17.199Z,3.43
2019-05-22T05:37:46.594Z,3.60
2019-05-22T05:40:36.385Z,4.00
2019-05-22T05:43:06.815Z,3.87
2019-05-22T05:45:36.961Z,3.47
2019-05-22T05:48:08.531Z,3.10
2019-05-22T05:50:40.430Z,4.57
2019-05-22T05:53:14.687Z,3.53
2019-05-22T05:56:06.062Z,3.70
2019-05-22T05:58:37.492Z,6.30
2019-05-22T06:01:19.504Z,3.20
2019-05-22T06:03:48.634Z,3.17
2019-05-22T06:06:27.308Z,4.07
2019-05-22T06:09:00.073Z,3.47
2019-05-22T06:11:35.725Z,2.63
2019-05-22T06:14:06.426Z,3.87
2019-05-22T06:16:50.980Z,6.07
2019-05-22T06:19:20.757Z,4.30
2019-05-22T06:21:51.007Z,2.83
2019-05-22T06:24:35.503Z,5.47
2019-05-22T06:27:11.428Z,6.00
2019-05-22T06:30:04.924Z,3.43
2019-05-22T06:32:57.511Z,3.13
2019-05-22T06:35:29.858Z,4.00
2019-05-22T06:38:21.620Z,2.60
2019-05-22T06:40:51.301Z,2.23
2019-05-22T06:43:24.731Z,3.30
2019-05-22T06:45:55.114Z,4.27
2019-05-22T06:48:23.950Z,3.00
2019-05-22T06:50:52.937Z,2.30
2019-05-22T06:53:21.610Z,3.23
2019-05-22T06:55:51.111Z,4.03
2019-05-22T06:58:20.681Z,1.87
2019-05-22T07:00:49.555Z,3.43
2019-05-22T07:03:18.846Z,2.67
2019-05-22T07:05:47.943Z,2.77
2019-05-22T07:08:17.147Z,4.20
2019-05-22T07:10:46.675Z,4.07
2019-05-22T07:13:16.919Z,4.60
2019-05-22T07:15:47.366Z,1.90
2019-05-22T07:18:17.955Z,2.17
2019-05-22T07:20:47.628Z,3.70
2019-05-22T07:23:20.410Z,5.30
2019-05-22T07:25:49.695Z,4.63
2019-05-22T07:28:19.485Z,2.60
2019-05-22T07:30:49.421Z,3.83
2019-05-22T07:33:18.774Z,3.97
2019-05-22T07:36:07.778Z,2.53
2019-05-22T07:38:19.577Z,3.63
2019-05-22T07:40:51.086Z,3.87
2019-05-22T07:43:21.714Z,2.30
2019-05-22T07:45:51.688Z,3.20
2019-05-22T07:48:21.967Z,3.50
2019-05-22T07:50:52.218Z,2.50
2019-05-22T07:53:22.692Z,3.83
2019-05-22T07:55:53.767Z,2.07
2019-05-22T07:58:24.142Z,3.30
2019-05-22T08:00:55.616Z,2.30
2019-05-22T08:03:25.173Z,2.73
2019-05-22T08:05:56.225Z,3.13
2019-05-22T08:08:27.700Z,3.57
2019-05-22T08:10:57.966Z,3.57
2019-05-22T08:13:27.101Z,4.10
2019-05-22T08:15:56.171Z,3.97
2019-05-22T08:18:27.069Z,2.33
2019-05-22T08:20:56.156Z,2.87
2019-05-22T08:23:26.659Z,4.87
2019-05-22T08:25:57.967Z,3.67
2019-05-22T08:28:28.207Z,3.53
2019-05-22T08:30:57.043Z,2.77
2019-05-22T08:33:26.062Z,2.67
2019-05-22T08:35:55.131Z,2.80
2019-05-22T08:38:29.632Z,4.33
2019-05-22T08:41:01.212Z,4.87
2019-05-22T08:43:31.175Z,5.20
2019-05-22T08:46:01.626Z,3.60
2019-05-22T08:48:31.510Z,4.03
2019-05-22T08:51:01.085Z,4.90
2019-05-22T08:53:44.402Z,4.97
2019-05-22T08:56:01.352Z,2.97
2019-05-22T08:58:30.154Z,4.43
2019-05-22T09:00:59.412Z,4.60
2019-05-22T09:03:28.738Z,2.60
2019-05-22T09:05:57.794Z,3.13
2019-05-22T09:08:26.578Z,3.87
2019-05-22T09:10:55.295Z,5.17
2019-05-22T09:13:23.993Z,4.67
2019-05-22T09:15:53.783Z,3.43
2019-05-22T09:18:22.707Z,6.00
2019-05-22T09:20:52.206Z,6.03
2019-05-22T09:23:21.972Z,3.80
2019-05-22T09:25:50.755Z,4.47
2019-05-22T09:28:19.507Z,3.33
2019-05-22T09:30:48.304Z,6.30
2019-05-22T09:33:18.589Z,4.30
2019-05-22T09:35:47.879Z,4.40
2019-05-22T09:38:16.963Z,4.03
2019-05-22T09:40:46.339Z,7.40
2019-05-22T09:43:15.312Z,4.00
2019-05-22T09:45:44.014Z,5.17
2019-05-22T09:48:12.692Z,4.53
2019-05-22T09:50:41.865Z,4.53
2019-05-22T09:53:10.595Z,4.47
2019-05-22T09:55:39.255Z,3.77
2019-05-22T09:58:08.473Z,4.40
2019-05-22T10:00:37.658Z,4.13
2019-05-22T10:03:07.108Z,4.97
2019-05-22T10:05:36.180Z,4.73
2019-05-22T10:08:05.664Z,3.03
2019-05-22T10:10:35.041Z,4.37
2019-05-22T10:13:04.097Z,3.00
2019-05-22T10:15:33.677Z,2.63
2019-05-22T10:18:03.414Z,3.10
2019-05-22T10:20:32.193Z,3.63
2019-05-22T10:23:14.880Z,3.83
2019-05-22T10:25:32.769Z,2.33
2019-05-22T10:28:01.463Z,2.90
2019-05-22T10:30:30.526Z,2.13
2019-05-22T10:32:59.259Z,2.67
2019-05-22T10:35:29.761Z,2.97
2019-05-22T10:37:58.394Z,2.93
2019-05-22T10:40:27.387Z,2.10
2019-05-22T10:42:56.814Z,1.60
2019-05-22T10:45:27.227Z,1.77
2019-05-22T10:47:55.996Z,2.63
2019-05-22T10:50:25.074Z,2.10
2019-05-22T10:52:55.105Z,3.23
2019-05-22T10:55:25.198Z,2.10
2019-05-22T10:57:54.204Z,2.03
2019-05-22T11:00:24.962Z,2.77
2019-05-22T11:02:53.922Z,3.90
2019-05-22T11:05:23.291Z,2.77
2019-05-22T11:07:52.307Z,3.00
2019-05-22T11:10:24.846Z,3.50
2019-05-22T11:12:54.439Z,2.30
2019-05-22T11:15:24.444Z,2.20
2019-05-22T11:17:54.375Z,2.40
2019-05-22T11:20:23.775Z,3.97
2019-05-22T11:22:53.161Z,2.77
2019-05-22T11:25:22.861Z,2.00
2019-05-22T11:27:53.683Z,2.43
2019-05-22T11:30:24.062Z,3.43
2019-05-22T11:32:53.837Z,4.03
2019-05-22T11:35:22.965Z,2.50
2019-05-22T11:37:51.761Z,3.90
2019-05-22T11:40:21.358Z,3.13
2019-05-22T11:42:51.949Z,3.80
2019-05-22T11:45:21.654Z,4.43
2019-05-22T11:47:51.147Z,4.57
2019-05-22T11:50:21.310Z,3.33
2019-05-22T11:52:50.187Z,4.40
2019-05-22T11:55:19.283Z,5.13
2019-05-22T11:57:49.129Z,4.57
2019-05-22T12:00:21.292Z,3.90
2019-05-22T12:02:51.630Z,4.57
2019-05-22T12:05:21.199Z,5.27
2019-05-22T12:07:50.225Z,5.23
2019-05-22T12:10:20.781Z,3.67
2019-05-22T12:12:51.614Z,4.70
2019-05-22T12:15:24.036Z,4.87
2019-05-22T12:17:53.468Z,4.27
2019-05-22T12:20:23.482Z,5.53
2019-05-22T12:22:52.573Z,4.90
2019-05-22T12:25:21.597Z,4.60
2019-05-22T12:27:50.432Z,4.10
2019-05-22T12:30:20.120Z,5.43
2019-05-22T12:32:49.450Z,3.70
2019-05-22T12:35:18.911Z,5.60
2019-05-22T12:37:47.944Z,4.93
2019-05-22T12:40:19.124Z,4.00
2019-05-22T12:42:49.205Z,3.90
2019-05-22T12:45:26.592Z,4.90
2019-05-22T12:47:55.883Z,4.30
2019-05-22T12:50:27.603Z,4.13
2019-05-22T12:52:56.292Z,4.00
2019-05-22T12:55:25.552Z,3.60
2019-05-22T12:57:54.298Z,3.60
2019-05-22T13:00:25.937Z,4.27
2019-05-22T13:02:57.016Z,2.80
2019-05-22T13:05:26.585Z,2.70
2019-05-22T13:07:57.058Z,4.83
2019-05-22T13:10:27.364Z,4.23
2019-05-22T13:12:56.974Z,3.30
2019-05-22T13:15:26.448Z,3.10
2019-05-22T13:17:55.665Z,3.67
2019-05-22T13:20:41.761Z,3.60
2019-05-22T13:22:58.108Z,3.93
2019-05-22T13:25:30.293Z,2.40
2019-05-22T13:28:00.668Z,3.30
2019-05-22T13:30:31.051Z,4.30
2019-05-22T13:33:00.371Z,4.57
2019-05-22T13:35:29.144Z,3.93
2019-05-22T13:37:59.015Z,4.17
2019-05-22T13:40:29.021Z,3.00
2019-05-22T13:42:59.323Z,2.93
2019-05-22T13:45:30.341Z,2.97
2019-05-22T13:47:59.254Z,3.80
2019-05-22T13:50:29.158Z,2.80
2019-05-22T13:53:00.610Z,2.90
2019-05-22T13:55:30.380Z,3.53
2019-05-22T13:58:03.362Z,2.60
2019-05-22T14:00:32.641Z,3.97
2019-05-22T14:03:01.557Z,3.23
2019-05-22T14:05:32.815Z,2.53
2019-05-22T14:08:01.425Z,2.57
2019-05-22T14:10:31.353Z,3.47
2019-05-22T14:13:01.765Z,3.27
2019-05-22T14:15:48.197Z,2.93
2019-05-22T14:18:01.895Z,4.63
2019-05-22T14:20:30.640Z,3.87
2019-05-22T14:22:59.449Z,2.67
2019-05-22T14:25:29.323Z,4.07
2019-05-22T14:27:58.169Z,2.10
2019-05-22T14:30:28.018Z,3.23
2019-05-22T14:33:03.887Z,2.30
2019-05-22T14:35:47.018Z,3.00
2019-05-22T14:38:01.825Z,3.30
2019-05-22T14:40:32.529Z,3.97
2019-05-22T14:43:01.357Z,4.43
2019-05-22T14:45:30.330Z,3.43
2019-05-22T14:47:59.324Z,3.23
2019-05-22T14:50:32.697Z,1.73
2019-05-22T14:53:00.321Z,2.70
2019-05-22T14:55:29.890Z,2.20
2019-05-22T14:57:58.841Z,2.03
2019-05-22T15:00:28.139Z,3.03
2019-05-22T15:02:59.072Z,2.53
2019-05-22T15:05:28.321Z,1.90
2019-05-22T15:07:56.939Z,3.27
2019-05-22T15:10:28.430Z,2.40
2019-05-22T15:12:57.540Z,3.10
2019-05-22T15:15:26.482Z,1.93
2019-05-22T15:17:55.391Z,3.00
2019-05-22T15:20:26.579Z,2.37
2019-05-22T15:22:56.377Z,2.20
2019-05-22T15:25:26.964Z,3.17
2019-05-22T15:27:55.829Z,4.23
2019-05-22T15:30:25.225Z,1.87
2019-05-22T15:32:53.896Z,2.83
2019-05-22T15:35:23.442Z,2.83
2019-05-22T15:37:54.479Z,3.23
2019-05-22T15:40:24.353Z,3.30
2019-05-22T15:42:54.503Z,3.60
2019-05-22T15:45:29.247Z,3.20
2019-05-22T15:48:02.380Z,4.70
2019-05-22T15:50:34.427Z,3.27
2019-05-22T15:53:08.803Z,3.40
2019-05-22T15:55:38.255Z,3.37
2019-05-22T15:58:08.264Z,3.40
2019-05-22T16:00:38.810Z,3.50
2019-05-22T16:03:16.896Z,4.00
2019-05-22T16:05:47.747Z,3.30
2019-05-22T16:08:17.303Z,3.90
2019-05-22T16:10:48.390Z,4.20
2019-05-22T16:13:21.148Z,4.70
2019-05-22T16:15:52.924Z,4.70
2019-05-22T16:18:25.478Z,3.87
2019-05-22T16:20:55.135Z,4.13
2019-05-22T16:23:24.761Z,4.50
2019-05-22T16:25:54.173Z,5.77
2019-05-22T16:28:23.709Z,4.30
2019-05-22T16:30:53.415Z,5.27
2019-05-22T16:33:23.769Z,4.57
2019-05-22T16:35:53.357Z,4.00
2019-05-22T16:38:24.004Z,4.43
2019-05-22T16:40:53.054Z,5.17
2019-05-22T16:43:22.199Z,3.93
2019-05-22T16:45:52.399Z,4.50
2019-05-22T16:48:29.104Z,4.50
2019-05-22T16:50:52.759Z,7.00
2019-05-22T16:53:23.365Z,5.93
2019-05-22T16:55:53.740Z,4.80
2019-05-22T16:58:22.750Z,5.77
2019-05-22T17:00:56.450Z,5.87
2019-05-22T17:03:25.054Z,5.73
2019-05-22T17:05:54.673Z,5.30
2019-05-22T17:08:23.867Z,6.40
2019-05-22T17:10:53.086Z,5.70
2019-05-22T17:13:22.555Z,4.90
2019-05-22T17:15:51.736Z,5.00
2019-05-22T17:18:21.407Z,6.10
2019-05-22T17:20:50.148Z,5.80
2019-05-22T17:23:18.943Z,8.60
2019-05-22T17:25:47.718Z,7.23
2019-05-22T17:28:17.899Z,7.47
2019-05-22T17:30:47.075Z,7.27
2019-05-22T17:33:15.867Z,6.67
2019-05-22T17:35:45.025Z,8.07
2019-05-22T17:38:14.946Z,9.00
2019-05-22T17:40:43.630Z,6.70
2019-05-22T17:43:13.436Z,7.97
2019-05-22T17:45:44.871Z,7.13
2019-05-22T17:48:16.229Z,7.20
2019-05-22T17:50:46.897Z,7.43
2019-05-22T17:53:16.288Z,9.33
2019-05-22T17:55:45.564Z,6.97
2019-05-22T17:58:14.778Z,6.60
2019-05-22T18:00:45.278Z,6.80
2019-05-22T18:03:14.564Z,6.30
2019-05-22T18:05:43.540Z,11.17
2019-05-22T18:08:12.787Z,6.47
2019-05-22T18:10:42.890Z,7.83
2019-05-22T18:13:12.890Z,8.10
2019-05-22T18:15:41.832Z,6.03
2019-05-22T18:18:11.285Z,7.03
2019-05-22T18:20:43.593Z,6.77
2019-05-22T18:23:11.208Z,6.07
2019-05-22T18:25:40.185Z,9.63
2019-05-22T18:28:10.681Z,5.43
2019-05-22T18:30:41.240Z,5.40
2019-05-22T18:33:10.319Z,5.70
2019-05-22T18:35:39.506Z,6.30
2019-05-22T18:38:08.373Z,6.23
2019-05-22T18:40:37.176Z,5.43
2019-05-22T18:43:06.083Z,7.07
2019-05-22T18:45:36.942Z,5.90
2019-05-22T18:48:06.480Z,7.00
2019-05-22T18:50:36.190Z,6.20
2019-05-22T18:53:05.441Z,6.23
2019-05-22T18:55:34.243Z,7.43
2019-05-22T18:58:02.927Z,6.97
2019-05-22T19:00:33.242Z,8.13
2019-05-22T19:03:01.962Z,6.80
2019-05-22T19:05:32.726Z,7.47
2019-05-22T19:08:01.700Z,7.53
2019-05-22T19:10:31.365Z,7.87
2019-05-22T19:13:00.375Z,6.20
2019-05-22T19:15:29.311Z,6.17
2019-05-22T19:17:58.696Z,7.70
2019-05-22T19:20:27.561Z,9.17
2019-05-22T19:23:00.987Z,7.23
2019-05-22T19:25:27.311Z,8.07
2019-05-22T19:27:55.956Z,7.93
2019-05-22T19:30:26.365Z,8.30
2019-05-22T19:32:55.327Z,7.00
2019-05-22T19:35:24.024Z,7.20
2019-05-22T19:37:53.686Z,7.23
2019-05-22T19:40:22.864Z,7.47
2019-05-22T19:42:51.754Z,7.17
2019-05-22T19:45:20.814Z,7.30
2019-05-22T19:47:52.006Z,7.03
2019-05-22T19:50:23.839Z,7.40
2019-05-22T19:52:55.087Z,6.50
2019-05-22T19:55:25.886Z,6.30
2019-05-22T19:57:55.135Z,6.83
2019-05-22T20:00:24.699Z,6.93
2019-05-22T20:02:54.514Z,6.47
2019-05-22T20:05:24.240Z,5.47
2019-05-22T20:07:53.328Z,6.17
2019-05-22T20:10:22.597Z,6.93
2019-05-22T20:12:51.677Z,4.90
2019-05-22T20:15:20.357Z,5.27
2019-05-22T20:17:49.139Z,5.63
2019-05-22T20:20:19.098Z,5.70
2019-05-22T20:22:48.024Z,9.60
2019-05-22T20:25:19.051Z,5.27
2019-05-22T20:27:47.912Z,5.03
2019-05-22T20:30:19.061Z,6.17
2019-05-22T20:32:48.981Z,5.37
2019-05-22T20:35:18.847Z,5.93
2019-05-22T20:37:47.856Z,6.33
2019-05-22T20:40:20.392Z,4.40
2019-05-22T20:42:50.499Z,5.90
2019-05-22T20:45:21.465Z,4.87
2019-05-22T20:47:54.707Z,6.37
2019-05-22T20:50:30.020Z,5.57
2019-05-22T20:52:59.117Z,5.93
2019-05-22T20:55:27.808Z,5.33
2019-05-22T20:57:57.768Z,6.77
2019-05-22T21:00:27.407Z,6.43
2019-05-22T21:03:02.504Z,6.60
2019-05-22T21:05:31.967Z,6.17
2019-05-22T21:08:07.146Z,4.87
2019-05-22T21:10:35.876Z,6.63
2019-05-22T21:13:05.752Z,4.93
2019-05-22T21:15:35.142Z,5.30
2019-05-22T21:18:04.617Z,5.40
2019-05-22T21:20:33.858Z,5.03
2019-05-22T21:23:03.783Z,5.43
2019-05-22T21:25:32.702Z,5.33
2019-05-22T21:28:01.406Z,4.83
2019-05-22T21:30:30.082Z,4.17
2019-05-22T21:32:59.166Z,5.87
2019-05-22T21:35:28.434Z,7.47
2019-05-22T21:37:58.551Z,4.93
2019-05-22T21:40:27.519Z,4.27
2019-05-22T21:42:56.263Z,4.70
2019-05-22T21:45:25.610Z,4.73
2019-05-22T21:47:54.913Z,4.17
2019-05-22T21:50:23.671Z,4.93
2019-05-22T21:52:54.512Z,5.00
2019-05-22T21:55:24.994Z,7.03
2019-05-22T21:57:54.621Z,5.10
2019-05-22T22:00:36.703Z,3.97
2019-05-22T22:03:05.994Z,4.80
2019-05-22T22:05:34.664Z,5.67
2019-05-22T22:08:03.829Z,5.30
2019-05-22T22:10:32.497Z,5.83
2019-05-22T22:13:01.591Z,4.77
2019-05-22T22:15:31.587Z,5.53
2019-05-22T22:18:00.477Z,3.33
2019-05-22T22:20:29.345Z,3.40
2019-05-22T22:22:58.241Z,3.90
2019-05-22T22:25:26.834Z,4.30
2019-05-22T22:27:55.927Z,5.40
2019-05-22T22:30:31.959Z,4.97
2019-05-22T22:33:04.933Z,3.60
2019-05-22T22:35:33.934Z,4.17
2019-05-22T22:38:03.357Z,5.03
2019-05-22T22:40:33.083Z,6.10
2019-05-22T22:43:03.327Z,4.77
2019-05-22T22:45:47.011Z,4.27
2019-05-22T22:48:18.161Z,3.57
2019-05-22T22:50:47.157Z,4.83
2019-05-22T22:53:17.000Z,4.17
2019-05-22T22:55:47.389Z,4.07
2019-05-22T22:58:17.948Z,4.20
2019-05-22T23:00:48.835Z,4.43
2019-05-22T23:03:27.358Z,4.87
2019-05-22T23:05:57.048Z,5.17
2019-05-22T23:08:34.793Z,4.83
2019-05-22T23:11:05.677Z,4.27
2019-05-22T23:13:35.638Z,5.77
2019-05-22T23:16:04.445Z,3.67
2019-05-22T23:18:43.507Z,4.63
2019-05-22T23:21:12.639Z,4.17
2019-05-22T23:23:41.346Z,4.50
2019-05-22T23:26:11.554Z,6.50
2019-05-22T23:28:41.889Z,5.60
2019-05-22T23:31:11.774Z,4.60
2019-05-22T23:33:41.018Z,4.57
2019-05-22T23:36:12.166Z,5.23
2019-05-22T23:38:41.426Z,4.13
2019-05-22T23:41:11.391Z,6.23
2019-05-22T23:43:40.527Z,5.23
2019-05-22T23:46:11.525Z,5.37
2019-05-22T23:48:41.206Z,5.60
2019-05-22T23:51:10.283Z,6.07
2019-05-22T23:53:40.460Z,6.23
2019-05-22T23:56:10.814Z,4.40
2019-05-22T23:58:52.356Z,5.07
